sensor_id;sensor_type;location;lat;lon;timestamp;P1;durP1;ratioP1;P2;durP2;ratioP2
2544;SDS011;36212;48.838;9.142;2023-09-07T00:01:08;7.40;;;6.00;;
2544;SDS011;36212;48.838;9.142;2023-09-07T00:03:40;6.43;;;5.83;;
2544;SDS011;36212;48.838;9.142;2023-09-07T00:06:14;5.90;;;5.50;;
2544;SDS011;36212;48.838;9.142;2023-09-07T00:08:46;5.93;;;5.40;;
2544;SDS011;36212;48.838;9.142;2023-09-07T00:11:18;5.40;;;5.00;;
2544;SDS011;36212;48.838;9.142;2023-09-07T00:13:50;6.80;;;5.20;;
2544;SDS011;36212;48.838;9.142;2023-09-07T00:16:22;5.67;;;5.27;;
2544;SDS011;36212;48.838;9.142;2023-09-07T00:18:55;5.90;;;5.30;;
2544;SDS011;36212;48.838;9.142;2023-09-07T00:21:27;5.63;;;5.20;;
2544;SDS011;36212;48.838;9.142;2023-09-07T00:23:59;6.70;;;6.20;;
2544;SDS011;36212;48.838;9.142;2023-09-07T00:26:36;6.27;;;5.87;;
2544;SDS011;36212;48.838;9.142;2023-09-07T00:29:08;6.60;;;6.10;;
2544;SDS011;36212;48.838;9.142;2023-09-07T00:31:40;6.70;;;6.20;;
2544;SDS011;36212;48.838;9.142;2023-09-07T00:34:13;7.23;;;6.30;;
2544;SDS011;36212;48.838;9.142;2023-09-07T00:36:45;6.30;;;5.90;;
2544;SDS011;36212;48.838;9.142;2023-09-07T00:39:17;7.57;;;6.87;;
2544;SDS011;36212;48.838;9.142;2023-09-07T00:41:49;6.77;;;6.17;;
2544;SDS011;36212;48.838;9.142;2023-09-07T00:44:21;20.43;;;5.83;;
2544;SDS011;36212;48.838;9.142;2023-09-07T00:46:53;7.60;;;6.20;;
2544;SDS011;36212;48.838;9.142;2023-09-07T00:49:26;6.77;;;6.17;;
2544;SDS011;36212;48.838;9.142;2023-09-07T00:51:58;7.68;;;6.28;;
2544;SDS011;36212;48.838;9.142;2023-09-07T00:54:31;16.37;;;6.00;;
2544;SDS011;36212;48.838;9.142;2023-09-07T00:57:05;5.50;;;5.10;;
2544;SDS011;36212;48.838;9.142;2023-09-07T00:59:38;6.20;;;5.70;;
2544;SDS011;36212;48.838;9.142;2023-09-07T01:02:10;7.97;;;7.27;;
2544;SDS011;36212;48.838;9.142;2023-09-07T01:04:43;8.43;;;7.72;;
2544;SDS011;36212;48.838;9.142;2023-09-07T01:09:56;5.93;;;5.32;;
2544;SDS011;36212;48.838;9.142;2023-09-07T01:12:31;7.37;;;6.77;;
2544;SDS011;36212;48.838;9.142;2023-09-07T01:15:04;8.80;;;8.00;;
2544;SDS011;36212;48.838;9.142;2023-09-07T01:17:37;9.20;;;8.45;;
2544;SDS011;36212;48.838;9.142;2023-09-07T01:20:11;6.55;;;6.10;;
2544;SDS011;36212;48.838;9.142;2023-09-07T01:22:48;6.20;;;5.80;;
2544;SDS011;36212;48.838;9.142;2023-09-07T01:25:21;8.80;;;6.05;;
2544;SDS011;36212;48.838;9.142;2023-09-07T01:27:53;6.33;;;5.77;;
2544;SDS011;36212;48.838;9.142;2023-09-07T01:30:29;6.97;;;5.60;;
2544;SDS011;36212;48.838;9.142;2023-09-07T01:33:04;5.72;;;5.20;;
2544;SDS011;36212;48.838;9.142;2023-09-07T01:35:36;6.32;;;5.93;;
2544;SDS011;36212;48.838;9.142;2023-09-07T01:38:11;7.15;;;6.43;;
2544;SDS011;36212;48.838;9.142;2023-09-07T01:40:43;6.50;;;6.00;;
2544;SDS011;36212;48.838;9.142;2023-09-07T01:43:15;6.68;;;6.05;;
2544;SDS011;36212;48.838;9.142;2023-09-07T01:45:49;6.65;;;6.05;;
2544;SDS011;36212;48.838;9.142;2023-09-07T01:48:21;6.35;;;5.78;;
2544;SDS011;36212;48.838;9.142;2023-09-07T01:50:54;6.22;;;5.03;;
2544;SDS011;36212;48.838;9.142;2023-09-07T01:53:26;5.78;;;5.30;;
2544;SDS011;36212;48.838;9.142;2023-09-07T01:55:58;5.32;;;5.03;;
2544;SDS011;36212;48.838;9.142;2023-09-07T01:58:32;5.93;;;5.20;;
2544;SDS011;36212;48.838;9.142;2023-09-07T02:01:06;5.95;;;5.55;;
2544;SDS011;36212;48.838;9.142;2023-09-07T02:03:53;5.82;;;5.43;;
2544;SDS011;36212;48.838;9.142;2023-09-07T02:06:26;6.30;;;5.75;;
2544;SDS011;36212;48.838;9.142;2023-09-07T02:08:58;6.53;;;5.93;;
2544;SDS011;36212;48.838;9.142;2023-09-07T02:11:31;7.38;;;5.95;;
2544;SDS011;36212;48.838;9.142;2023-09-07T02:14:03;6.18;;;5.68;;
2544;SDS011;36212;48.838;9.142;2023-09-07T02:16:35;6.63;;;6.13;;
2544;SDS011;36212;48.838;9.142;2023-09-07T02:19:08;6.20;;;5.80;;
2544;SDS011;36212;48.838;9.142;2023-09-07T02:21:41;6.25;;;5.75;;
2544;SDS011;36212;48.838;9.142;2023-09-07T02:24:13;6.93;;;6.22;;
2544;SDS011;36212;48.838;9.142;2023-09-07T02:26:45;8.55;;;5.80;;
2544;SDS011;36212;48.838;9.142;2023-09-07T02:29:17;6.03;;;5.60;;
2544;SDS011;36212;48.838;9.142;2023-09-07T02:31:50;6.32;;;5.43;;
2544;SDS011;36212;48.838;9.142;2023-09-07T02:34:22;6.90;;;6.30;;
2544;SDS011;36212;48.838;9.142;2023-09-07T02:36:54;5.43;;;4.93;;
2544;SDS011;36212;48.838;9.142;2023-09-07T02:39:28;6.63;;;6.10;;
2544;SDS011;36212;48.838;9.142;2023-09-07T02:42:01;5.95;;;5.55;;
2544;SDS011;36212;48.838;9.142;2023-09-07T02:44:34;5.43;;;5.10;;
2544;SDS011;36212;48.838;9.142;2023-09-07T02:47:08;6.68;;;6.18;;
2544;SDS011;36212;48.838;9.142;2023-09-07T02:49:43;6.70;;;6.20;;
2544;SDS011;36212;48.838;9.142;2023-09-07T02:52:15;6.32;;;5.82;;
2544;SDS011;36212;48.838;9.142;2023-09-07T02:54:47;6.82;;;6.32;;
2544;SDS011;36212;48.838;9.142;2023-09-07T02:57:20;6.80;;;6.30;;
2544;SDS011;36212;48.838;9.142;2023-09-07T02:59:52;7.50;;;7.00;;
2544;SDS011;36212;48.838;9.142;2023-09-07T03:02:25;6.72;;;6.15;;
2544;SDS011;36212;48.838;9.142;2023-09-07T03:04:57;6.97;;;6.38;;
2544;SDS011;36212;48.838;9.142;2023-09-07T03:07:32;6.40;;;5.80;;
2544;SDS011;36212;48.838;9.142;2023-09-07T03:10:05;9.52;;;7.50;;
2544;SDS011;36212;48.838;9.142;2023-09-07T03:12:38;7.03;;;6.45;;
2544;SDS011;36212;48.838;9.142;2023-09-07T03:15:11;8.10;;;6.78;;
2544;SDS011;36212;48.838;9.142;2023-09-07T03:17:43;10.45;;;7.20;;
2544;SDS011;36212;48.838;9.142;2023-09-07T03:20:16;7.38;;;6.78;;
2544;SDS011;36212;48.838;9.142;2023-09-07T03:22:48;7.03;;;6.47;;
2544;SDS011;36212;48.838;9.142;2023-09-07T03:25:21;8.48;;;6.35;;
2544;SDS011;36212;48.838;9.142;2023-09-07T03:27:53;7.00;;;6.40;;
2544;SDS011;36212;48.838;9.142;2023-09-07T03:30:25;7.45;;;6.75;;
2544;SDS011;36212;48.838;9.142;2023-09-07T03:32:57;7.78;;;7.03;;
2544;SDS011;36212;48.838;9.142;2023-09-07T03:35:29;7.03;;;6.43;;
2544;SDS011;36212;48.838;9.142;2023-09-07T03:38:01;6.90;;;6.40;;
2544;SDS011;36212;48.838;9.142;2023-09-07T03:40:34;7.53;;;6.78;;
2544;SDS011;36212;48.838;9.142;2023-09-07T03:43:06;6.47;;;5.97;;
2544;SDS011;36212;48.838;9.142;2023-09-07T03:45:39;7.50;;;6.80;;
2544;SDS011;36212;48.838;9.142;2023-09-07T03:48:11;6.65;;;6.13;;
2544;SDS011;36212;48.838;9.142;2023-09-07T03:50:43;7.70;;;7.05;;
2544;SDS011;36212;48.838;9.142;2023-09-07T03:53:15;6.78;;;6.28;;
2544;SDS011;36212;48.838;9.142;2023-09-07T03:55:48;8.82;;;6.90;;
2544;SDS011;36212;48.838;9.142;2023-09-07T03:58:20;8.57;;;7.20;;
2544;SDS011;36212;48.838;9.142;2023-09-07T04:00:52;7.50;;;6.80;;
2544;SDS011;36212;48.838;9.142;2023-09-07T04:03:24;6.85;;;6.25;;
2544;SDS011;36212;48.838;9.142;2023-09-07T04:05:57;7.32;;;6.72;;
2544;SDS011;36212;48.838;9.142;2023-09-07T04:08:29;7.03;;;6.40;;
2544;SDS011;36212;48.838;9.142;2023-09-07T04:11:05;7.30;;;6.65;;
2544;SDS011;36212;48.838;9.142;2023-09-07T04:13:37;7.38;;;6.78;;
2544;SDS011;36212;48.838;9.142;2023-09-07T04:16:09;8.18;;;6.15;;
2544;SDS011;36212;48.838;9.142;2023-09-07T04:18:42;7.88;;;7.28;;
2544;SDS011;36212;48.838;9.142;2023-09-07T04:21:16;9.25;;;7.78;;
2544;SDS011;36212;48.838;9.142;2023-09-07T04:23:49;8.05;;;7.35;;
2544;SDS011;36212;48.838;9.142;2023-09-07T04:26:21;7.72;;;6.93;;
2544;SDS011;36212;48.838;9.142;2023-09-07T04:28:53;7.03;;;6.43;;
2544;SDS011;36212;48.838;9.142;2023-09-07T04:31:25;8.35;;;7.32;;
2544;SDS011;36212;48.838;9.142;2023-09-07T04:33:59;6.97;;;6.45;;
2544;SDS011;36212;48.838;9.142;2023-09-07T04:36:33;7.38;;;6.38;;
2544;SDS011;36212;48.838;9.142;2023-09-07T04:39:05;10.25;;;7.10;;
2544;SDS011;36212;48.838;9.142;2023-09-07T04:41:37;6.95;;;6.45;;
2544;SDS011;36212;48.838;9.142;2023-09-07T04:44:10;6.22;;;5.68;;
2544;SDS011;36212;48.838;9.142;2023-09-07T04:46:43;6.43;;;5.82;;
2544;SDS011;36212;48.838;9.142;2023-09-07T04:49:16;6.75;;;6.05;;
2544;SDS011;36212;48.838;9.142;2023-09-07T04:51:48;5.47;;;4.97;;
2544;SDS011;36212;48.838;9.142;2023-09-07T04:54:23;6.65;;;5.32;;
2544;SDS011;36212;48.838;9.142;2023-09-07T04:56:55;4.85;;;4.45;;
2544;SDS011;36212;48.838;9.142;2023-09-07T04:59:27;4.95;;;4.55;;
2544;SDS011;36212;48.838;9.142;2023-09-07T05:02:00;4.43;;;3.90;;
2544;SDS011;36212;48.838;9.142;2023-09-07T05:04:34;5.75;;;4.50;;
2544;SDS011;36212;48.838;9.142;2023-09-07T05:07:07;4.40;;;4.10;;
2544;SDS011;36212;48.838;9.142;2023-09-07T05:09:39;4.05;;;3.78;;
2544;SDS011;36212;48.838;9.142;2023-09-07T05:12:11;4.22;;;3.92;;
2544;SDS011;36212;48.838;9.142;2023-09-07T05:14:48;3.42;;;3.22;;
2544;SDS011;36212;48.838;9.142;2023-09-07T05:17:20;4.10;;;3.80;;
2544;SDS011;36212;48.838;9.142;2023-09-07T05:19:52;4.90;;;4.50;;
2544;SDS011;36212;48.838;9.142;2023-09-07T05:22:25;4.60;;;4.20;;
2544;SDS011;36212;48.838;9.142;2023-09-07T05:24:58;4.40;;;4.00;;
2544;SDS011;36212;48.838;9.142;2023-09-07T05:27:34;5.07;;;4.50;;
2544;SDS011;36212;48.838;9.142;2023-09-07T05:30:07;5.38;;;4.05;;
2544;SDS011;36212;48.838;9.142;2023-09-07T05:32:41;4.28;;;3.90;;
2544;SDS011;36212;48.838;9.142;2023-09-07T05:35:15;5.78;;;5.30;;
2544;SDS011;36212;48.838;9.142;2023-09-07T05:37:48;3.97;;;3.67;;
2544;SDS011;36212;48.838;9.142;2023-09-07T05:40:20;4.00;;;3.75;;
2544;SDS011;36212;48.838;9.142;2023-09-07T05:42:53;4.00;;;3.70;;
2544;SDS011;36212;48.838;9.142;2023-09-07T05:45:25;5.72;;;3.53;;
2544;SDS011;36212;48.838;9.142;2023-09-07T05:47:58;4.72;;;4.22;;
2544;SDS011;36212;48.838;9.142;2023-09-07T05:50:33;5.65;;;4.30;;
2544;SDS011;36212;48.838;9.142;2023-09-07T05:53:07;5.10;;;4.70;;
2544;SDS011;36212;48.838;9.142;2023-09-07T05:55:39;4.72;;;4.28;;
2544;SDS011;36212;48.838;9.142;2023-09-07T05:58:12;4.93;;;4.53;;
2544;SDS011;36212;48.838;9.142;2023-09-07T06:00:45;4.88;;;4.32;;
2544;SDS011;36212;48.838;9.142;2023-09-07T06:03:17;5.38;;;4.88;;
2544;SDS011;36212;48.838;9.142;2023-09-07T06:05:50;7.75;;;5.38;;
2544;SDS011;36212;48.838;9.142;2023-09-07T06:08:22;4.20;;;3.90;;
2544;SDS011;36212;48.838;9.142;2023-09-07T06:10:55;5.03;;;4.63;;
2544;SDS011;36212;48.838;9.142;2023-09-07T06:13:27;5.38;;;4.88;;
2544;SDS011;36212;48.838;9.142;2023-09-07T06:15:59;4.80;;;4.40;;
2544;SDS011;36212;48.838;9.142;2023-09-07T06:18:33;4.80;;;4.37;;
2544;SDS011;36212;48.838;9.142;2023-09-07T06:21:05;4.57;;;4.17;;
2544;SDS011;36212;48.838;9.142;2023-09-07T06:23:37;6.57;;;5.97;;
2544;SDS011;36212;48.838;9.142;2023-09-07T06:26:10;4.50;;;4.10;;
2544;SDS011;36212;48.838;9.142;2023-09-07T06:28:42;4.70;;;4.30;;
2544;SDS011;36212;48.838;9.142;2023-09-07T06:31:14;4.23;;;3.83;;
2544;SDS011;36212;48.838;9.142;2023-09-07T06:33:50;4.10;;;3.80;;
2544;SDS011;36212;48.838;9.142;2023-09-07T06:36:22;4.43;;;4.13;;
2544;SDS011;36212;48.838;9.142;2023-09-07T06:39:14;4.00;;;3.70;;
2544;SDS011;36212;48.838;9.142;2023-09-07T06:41:46;3.60;;;3.30;;
2544;SDS011;36212;48.838;9.142;2023-09-07T06:44:19;3.50;;;3.20;;
2544;SDS011;36212;48.838;9.142;2023-09-07T06:46:51;3.57;;;3.33;;
2544;SDS011;36212;48.838;9.142;2023-09-07T06:49:23;3.77;;;3.17;;
2544;SDS011;36212;48.838;9.142;2023-09-07T06:51:56;3.20;;;3.00;;
2544;SDS011;36212;48.838;9.142;2023-09-07T06:54:28;3.63;;;3.43;;
2544;SDS011;36212;48.838;9.142;2023-09-07T06:57:01;3.67;;;3.37;;
2544;SDS011;36212;48.838;9.142;2023-09-07T06:59:36;3.20;;;2.90;;
2544;SDS011;36212;48.838;9.142;2023-09-07T07:02:09;3.57;;;3.27;;
2544;SDS011;36212;48.838;9.142;2023-09-07T07:04:41;5.07;;;3.17;;
2544;SDS011;36212;48.838;9.142;2023-09-07T07:07:16;3.90;;;3.60;;
2544;SDS011;36212;48.838;9.142;2023-09-07T07:09:49;3.10;;;2.90;;
2544;SDS011;36212;48.838;9.142;2023-09-07T07:12:22;4.00;;;3.70;;
2544;SDS011;36212;48.838;9.142;2023-09-07T07:14:56;4.07;;;3.77;;
2544;SDS011;36212;48.838;9.142;2023-09-07T07:17:29;3.13;;;2.93;;
2544;SDS011;36212;48.838;9.142;2023-09-07T07:20:01;3.30;;;3.10;;
2544;SDS011;36212;48.838;9.142;2023-09-07T07:22:34;3.47;;;3.27;;
2544;SDS011;36212;48.838;9.142;2023-09-07T07:25:07;3.20;;;3.00;;
2544;SDS011;36212;48.838;9.142;2023-09-07T07:27:40;3.33;;;3.00;;
2544;SDS011;36212;48.838;9.142;2023-09-07T07:30:13;3.17;;;2.93;;
2544;SDS011;36212;48.838;9.142;2023-09-07T07:32:45;3.37;;;3.17;;
2544;SDS011;36212;48.838;9.142;2023-09-07T07:35:18;3.60;;;3.30;;
2544;SDS011;36212;48.838;9.142;2023-09-07T07:37:50;3.40;;;3.20;;
2544;SDS011;36212;48.838;9.142;2023-09-07T07:40:22;3.50;;;3.20;;
2544;SDS011;36212;48.838;9.142;2023-09-07T07:42:55;3.13;;;2.93;;
2544;SDS011;36212;48.838;9.142;2023-09-07T07:45:27;3.00;;;2.80;;
2544;SDS011;36212;48.838;9.142;2023-09-07T07:47:59;3.13;;;2.90;;
2544;SDS011;36212;48.838;9.142;2023-09-07T07:50:35;4.40;;;4.00;;
2544;SDS011;36212;48.838;9.142;2023-09-07T07:53:10;3.30;;;3.10;;
2544;SDS011;36212;48.838;9.142;2023-09-07T07:55:42;3.60;;;3.30;;
2544;SDS011;36212;48.838;9.142;2023-09-07T07:58:14;3.90;;;3.70;;
2544;SDS011;36212;48.838;9.142;2023-09-07T08:00:46;4.00;;;3.70;;
2544;SDS011;36212;48.838;9.142;2023-09-07T08:03:20;4.13;;;3.83;;
2544;SDS011;36212;48.838;9.142;2023-09-07T08:05:52;3.70;;;3.40;;
2544;SDS011;36212;48.838;9.142;2023-09-07T08:08:24;3.23;;;3.03;;
2544;SDS011;36212;48.838;9.142;2023-09-07T08:10:56;3.67;;;3.37;;
2544;SDS011;36212;48.838;9.142;2023-09-07T08:13:35;3.63;;;3.40;;
2544;SDS011;36212;48.838;9.142;2023-09-07T08:16:07;3.47;;;3.27;;
2544;SDS011;36212;48.838;9.142;2023-09-07T08:18:43;2.90;;;2.70;;
2544;SDS011;36212;48.838;9.142;2023-09-07T08:21:21;3.70;;;3.50;;
2544;SDS011;36212;48.838;9.142;2023-09-07T08:23:53;3.60;;;3.30;;
2544;SDS011;36212;48.838;9.142;2023-09-07T08:26:26;3.07;;;2.87;;
2544;SDS011;36212;48.838;9.142;2023-09-07T08:28:59;3.80;;;3.50;;
2544;SDS011;36212;48.838;9.142;2023-09-07T08:31:38;3.40;;;3.20;;
2544;SDS011;36212;48.838;9.142;2023-09-07T08:34:11;3.10;;;2.90;;
2544;SDS011;36212;48.838;9.142;2023-09-07T08:36:43;3.67;;;3.47;;
2544;SDS011;36212;48.838;9.142;2023-09-07T08:39:16;3.53;;;3.33;;
2544;SDS011;36212;48.838;9.142;2023-09-07T08:41:50;3.70;;;3.40;;
2544;SDS011;36212;48.838;9.142;2023-09-07T08:44:33;2.93;;;2.80;;
2544;SDS011;36212;48.838;9.142;2023-09-07T08:47:10;3.77;;;3.57;;
2544;SDS011;36212;48.838;9.142;2023-09-07T08:49:43;3.53;;;3.30;;
2544;SDS011;36212;48.838;9.142;2023-09-07T08:52:17;3.30;;;3.10;;
2544;SDS011;36212;48.838;9.142;2023-09-07T08:54:50;4.37;;;4.07;;
2544;SDS011;36212;48.838;9.142;2023-09-07T08:57:25;3.50;;;3.20;;
2544;SDS011;36212;48.838;9.142;2023-09-07T09:00:02;3.73;;;3.33;;
2544;SDS011;36212;48.838;9.142;2023-09-07T09:02:46;3.50;;;3.23;;
2544;SDS011;36212;48.838;9.142;2023-09-07T09:05:27;3.80;;;3.50;;
2544;SDS011;36212;48.838;9.142;2023-09-07T09:08:05;3.30;;;3.00;;
2544;SDS011;36212;48.838;9.142;2023-09-07T09:10:41;3.47;;;3.17;;
2544;SDS011;36212;48.838;9.142;2023-09-07T09:13:14;3.53;;;3.23;;
2544;SDS011;36212;48.838;9.142;2023-09-07T09:16:00;3.63;;;3.43;;
2544;SDS011;36212;48.838;9.142;2023-09-07T09:18:33;2.93;;;2.80;;
2544;SDS011;36212;48.838;9.142;2023-09-07T09:21:06;3.53;;;3.33;;
2544;SDS011;36212;48.838;9.142;2023-09-07T09:23:39;3.40;;;3.20;;
2544;SDS011;36212;48.838;9.142;2023-09-07T09:26:13;3.53;;;3.30;;
2544;SDS011;36212;48.838;9.142;2023-09-07T09:28:46;3.60;;;3.40;;
2544;SDS011;36212;48.838;9.142;2023-09-07T09:31:20;3.63;;;3.33;;
2544;SDS011;36212;48.838;9.142;2023-09-07T09:33:54;3.33;;;3.13;;
2544;SDS011;36212;48.838;9.142;2023-09-07T09:36:34;3.30;;;3.10;;
2544;SDS011;36212;48.838;9.142;2023-09-07T09:39:21;4.23;;;3.93;;
2544;SDS011;36212;48.838;9.142;2023-09-07T09:41:55;3.97;;;3.67;;
2544;SDS011;36212;48.838;9.142;2023-09-07T09:44:29;3.80;;;3.60;;
2544;SDS011;36212;48.838;9.142;2023-09-07T09:47:02;4.87;;;4.47;;
2544;SDS011;36212;48.838;9.142;2023-09-07T09:49:36;4.10;;;3.80;;
2544;SDS011;36212;48.838;9.142;2023-09-07T09:52:10;3.90;;;3.60;;
2544;SDS011;36212;48.838;9.142;2023-09-07T09:54:45;3.20;;;3.00;;
2544;SDS011;36212;48.838;9.142;2023-09-07T09:57:21;4.40;;;4.00;;
2544;SDS011;36212;48.838;9.142;2023-09-07T09:59:53;3.87;;;3.57;;
2544;SDS011;36212;48.838;9.142;2023-09-07T10:02:26;3.80;;;3.60;;
2544;SDS011;36212;48.838;9.142;2023-09-07T10:04:59;3.57;;;3.37;;
2544;SDS011;36212;48.838;9.142;2023-09-07T10:07:41;3.30;;;3.10;;
2544;SDS011;36212;48.838;9.142;2023-09-07T10:10:18;4.03;;;3.77;;
2544;SDS011;36212;48.838;9.142;2023-09-07T10:12:52;3.43;;;3.23;;
2544;SDS011;36212;48.838;9.142;2023-09-07T10:15:27;4.00;;;3.70;;
2544;SDS011;36212;48.838;9.142;2023-09-07T10:18:02;3.60;;;3.40;;
2544;SDS011;36212;48.838;9.142;2023-09-07T10:23:35;4.40;;;4.10;;
2544;SDS011;36212;48.838;9.142;2023-09-07T10:26:16;3.97;;;3.67;;
2544;SDS011;36212;48.838;9.142;2023-09-07T10:29:01;3.60;;;3.40;;
2544;SDS011;36212;48.838;9.142;2023-09-07T10:31:36;3.83;;;3.53;;
2544;SDS011;36212;48.838;9.142;2023-09-07T10:34:34;3.90;;;3.60;;
2544;SDS011;36212;48.838;9.142;2023-09-07T10:37:14;4.20;;;3.90;;
2544;SDS011;36212;48.838;9.142;2023-09-07T10:39:47;3.60;;;3.40;;
2544;SDS011;36212;48.838;9.142;2023-09-07T10:42:22;3.60;;;3.40;;
2544;SDS011;36212;48.838;9.142;2023-09-07T10:45:07;4.30;;;3.90;;
2544;SDS011;36212;48.838;9.142;2023-09-07T10:47:43;4.03;;;3.73;;
2544;SDS011;36212;48.838;9.142;2023-09-07T10:50:17;4.90;;;4.60;;
2544;SDS011;36212;48.838;9.142;2023-09-07T10:52:50;3.67;;;3.37;;
2544;SDS011;36212;48.838;9.142;2023-09-07T10:55:24;4.27;;;3.97;;
2544;SDS011;36212;48.838;9.142;2023-09-07T10:58:06;4.50;;;4.20;;
2544;SDS011;36212;48.838;9.142;2023-09-07T11:00:40;4.20;;;3.87;;
2544;SDS011;36212;48.838;9.142;2023-09-07T11:03:12;4.30;;;3.90;;
2544;SDS011;36212;48.838;9.142;2023-09-07T11:05:46;4.10;;;3.80;;
2544;SDS011;36212;48.838;9.142;2023-09-07T11:08:21;3.70;;;3.50;;
2544;SDS011;36212;48.838;9.142;2023-09-07T11:10:54;3.53;;;3.30;;
2544;SDS011;36212;48.838;9.142;2023-09-07T11:13:27;3.27;;;3.07;;
2544;SDS011;36212;48.838;9.142;2023-09-07T11:16:00;3.13;;;2.93;;
2544;SDS011;36212;48.838;9.142;2023-09-07T11:18:37;3.23;;;3.03;;
2544;SDS011;36212;48.838;9.142;2023-09-07T11:21:12;3.50;;;3.30;;
2544;SDS011;36212;48.838;9.142;2023-09-07T11:23:44;3.53;;;3.33;;
2544;SDS011;36212;48.838;9.142;2023-09-07T11:26:17;3.57;;;3.27;;
2544;SDS011;36212;48.838;9.142;2023-09-07T11:28:49;3.77;;;3.57;;
2544;SDS011;36212;48.838;9.142;2023-09-07T11:31:22;3.60;;;3.30;;
2544;SDS011;36212;48.838;9.142;2023-09-07T11:33:54;4.00;;;3.70;;
2544;SDS011;36212;48.838;9.142;2023-09-07T11:36:27;3.00;;;2.80;;
2544;SDS011;36212;48.838;9.142;2023-09-07T11:39:00;3.33;;;3.13;;
2544;SDS011;36212;48.838;9.142;2023-09-07T11:41:41;3.43;;;3.23;;
2544;SDS011;36212;48.838;9.142;2023-09-07T11:44:14;3.20;;;3.00;;
2544;SDS011;36212;48.838;9.142;2023-09-07T11:46:47;3.07;;;2.87;;
2544;SDS011;36212;48.838;9.142;2023-09-07T11:49:19;3.33;;;3.13;;
2544;SDS011;36212;48.838;9.142;2023-09-07T11:51:53;3.40;;;3.20;;
2544;SDS011;36212;48.838;9.142;2023-09-07T11:54:26;3.53;;;3.33;;
2544;SDS011;36212;48.838;9.142;2023-09-07T11:56:58;3.00;;;2.80;;
2544;SDS011;36212;48.838;9.142;2023-09-07T11:59:30;3.60;;;3.40;;
2544;SDS011;36212;48.838;9.142;2023-09-07T12:02:18;3.47;;;3.17;;
2544;SDS011;36212;48.838;9.142;2023-09-07T12:04:53;3.50;;;3.30;;
2544;SDS011;36212;48.838;9.142;2023-09-07T12:07:26;3.50;;;3.20;;
2544;SDS011;36212;48.838;9.142;2023-09-07T12:09:58;3.37;;;3.10;;
2544;SDS011;36212;48.838;9.142;2023-09-07T12:12:30;3.13;;;2.93;;
2544;SDS011;36212;48.838;9.142;2023-09-07T12:15:03;3.27;;;3.07;;
2544;SDS011;36212;48.838;9.142;2023-09-07T12:17:36;2.83;;;2.63;;
2544;SDS011;36212;48.838;9.142;2023-09-07T12:20:10;4.37;;;3.57;;
2544;SDS011;36212;48.838;9.142;2023-09-07T12:22:44;3.47;;;3.27;;
2544;SDS011;36212;48.838;9.142;2023-09-07T12:25:17;3.03;;;2.83;;
2544;SDS011;36212;48.838;9.142;2023-09-07T12:27:50;3.00;;;2.90;;
2544;SDS011;36212;48.838;9.142;2023-09-07T12:30:26;3.23;;;3.03;;
2544;SDS011;36212;48.838;9.142;2023-09-07T12:32:58;3.27;;;3.07;;
2544;SDS011;36212;48.838;9.142;2023-09-07T12:35:31;3.20;;;3.00;;
2544;SDS011;36212;48.838;9.142;2023-09-07T12:38:03;3.60;;;3.40;;
2544;SDS011;36212;48.838;9.142;2023-09-07T12:40:37;3.07;;;2.87;;
2544;SDS011;36212;48.838;9.142;2023-09-07T12:43:10;3.10;;;2.90;;
2544;SDS011;36212;48.838;9.142;2023-09-07T12:45:42;2.77;;;2.67;;
2544;SDS011;36212;48.838;9.142;2023-09-07T12:48:16;2.77;;;2.57;;
2544;SDS011;36212;48.838;9.142;2023-09-07T12:50:49;2.90;;;2.80;;
2544;SDS011;36212;48.838;9.142;2023-09-07T12:53:21;3.17;;;2.97;;
2544;SDS011;36212;48.838;9.142;2023-09-07T12:55:57;3.13;;;2.93;;
2544;SDS011;36212;48.838;9.142;2023-09-07T12:58:31;2.83;;;2.63;;
2544;SDS011;36212;48.838;9.142;2023-09-07T13:01:03;2.63;;;2.53;;
2544;SDS011;36212;48.838;9.142;2023-09-07T13:03:36;3.07;;;2.87;;
2544;SDS011;36212;48.838;9.142;2023-09-07T13:06:09;3.10;;;2.90;;
2544;SDS011;36212;48.838;9.142;2023-09-07T13:08:42;2.83;;;2.63;;
2544;SDS011;36212;48.838;9.142;2023-09-07T13:11:15;3.07;;;2.87;;
2544;SDS011;36212;48.838;9.142;2023-09-07T13:13:47;2.53;;;2.43;;
2544;SDS011;36212;48.838;9.142;2023-09-07T13:16:19;3.20;;;3.00;;
2544;SDS011;36212;48.838;9.142;2023-09-07T13:18:52;3.27;;;2.97;;
2544;SDS011;36212;48.838;9.142;2023-09-07T13:21:24;3.20;;;3.00;;
2544;SDS011;36212;48.838;9.142;2023-09-07T13:23:56;3.20;;;3.00;;
2544;SDS011;36212;48.838;9.142;2023-09-07T13:26:28;2.60;;;2.50;;
2544;SDS011;36212;48.838;9.142;2023-09-07T13:29:01;3.20;;;3.00;;
2544;SDS011;36212;48.838;9.142;2023-09-07T13:31:34;2.73;;;2.60;;
2544;SDS011;36212;48.838;9.142;2023-09-07T13:34:07;2.80;;;2.70;;
2544;SDS011;36212;48.838;9.142;2023-09-07T13:36:39;3.23;;;3.03;;
2544;SDS011;36212;48.838;9.142;2023-09-07T13:39:11;3.10;;;2.90;;
2544;SDS011;36212;48.838;9.142;2023-09-07T13:41:44;3.00;;;2.80;;
2544;SDS011;36212;48.838;9.142;2023-09-07T13:44:16;3.20;;;3.00;;
2544;SDS011;36212;48.838;9.142;2023-09-07T13:46:50;2.83;;;2.70;;
2544;SDS011;36212;48.838;9.142;2023-09-07T13:49:25;3.00;;;2.80;;
2544;SDS011;36212;48.838;9.142;2023-09-07T13:51:57;3.53;;;3.33;;
2544;SDS011;36212;48.838;9.142;2023-09-07T13:54:29;3.23;;;3.03;;
2544;SDS011;36212;48.838;9.142;2023-09-07T13:57:01;3.00;;;2.80;;
2544;SDS011;36212;48.838;9.142;2023-09-07T13:59:34;3.30;;;3.10;;
2544;SDS011;36212;48.838;9.142;2023-09-07T14:02:07;5.50;;;2.93;;
2544;SDS011;36212;48.838;9.142;2023-09-07T14:04:39;2.90;;;2.70;;
2544;SDS011;36212;48.838;9.142;2023-09-07T14:07:12;3.20;;;3.00;;
2544;SDS011;36212;48.838;9.142;2023-09-07T14:09:44;2.63;;;2.53;;
2544;SDS011;36212;48.838;9.142;2023-09-07T14:12:16;2.73;;;2.53;;
2544;SDS011;36212;48.838;9.142;2023-09-07T14:14:49;3.00;;;2.80;;
2544;SDS011;36212;48.838;9.142;2023-09-07T14:17:21;2.57;;;2.47;;
2544;SDS011;36212;48.838;9.142;2023-09-07T14:19:56;3.40;;;3.20;;
2544;SDS011;36212;48.838;9.142;2023-09-07T14:22:29;2.50;;;2.33;;
2544;SDS011;36212;48.838;9.142;2023-09-07T14:25:02;3.20;;;3.00;;
2544;SDS011;36212;48.838;9.142;2023-09-07T14:27:35;2.70;;;2.57;;
2544;SDS011;36212;48.838;9.142;2023-09-07T14:30:07;3.23;;;3.03;;
2544;SDS011;36212;48.838;9.142;2023-09-07T14:32:40;2.80;;;2.70;;
2544;SDS011;36212;48.838;9.142;2023-09-07T14:35:13;3.27;;;2.97;;
2544;SDS011;36212;48.838;9.142;2023-09-07T14:37:46;3.10;;;2.90;;
2544;SDS011;36212;48.838;9.142;2023-09-07T14:40:18;3.43;;;3.13;;
2544;SDS011;36212;48.838;9.142;2023-09-07T14:42:52;2.93;;;2.73;;
2544;SDS011;36212;48.838;9.142;2023-09-07T14:45:28;2.70;;;2.50;;
2544;SDS011;36212;48.838;9.142;2023-09-07T14:48:00;2.87;;;2.67;;
2544;SDS011;36212;48.838;9.142;2023-09-07T14:50:33;3.00;;;2.80;;
2544;SDS011;36212;48.838;9.142;2023-09-07T14:53:06;2.80;;;2.60;;
2544;SDS011;36212;48.838;9.142;2023-09-07T14:55:39;2.90;;;2.70;;
2544;SDS011;36212;48.838;9.142;2023-09-07T14:58:12;2.70;;;2.60;;
2544;SDS011;36212;48.838;9.142;2023-09-07T15:00:44;3.00;;;2.80;;
2544;SDS011;36212;48.838;9.142;2023-09-07T15:03:16;2.53;;;2.43;;
2544;SDS011;36212;48.838;9.142;2023-09-07T15:05:48;2.50;;;2.40;;
2544;SDS011;36212;48.838;9.142;2023-09-07T15:08:21;3.53;;;3.33;;
2544;SDS011;36212;48.838;9.142;2023-09-07T15:10:54;3.47;;;3.27;;
2544;SDS011;36212;48.838;9.142;2023-09-07T15:13:27;3.37;;;3.17;;
2544;SDS011;36212;48.838;9.142;2023-09-07T15:16:00;3.20;;;2.97;;
2544;SDS011;36212;48.838;9.142;2023-09-07T15:18:34;3.07;;;2.87;;
2544;SDS011;36212;48.838;9.142;2023-09-07T15:21:07;3.20;;;3.00;;
2544;SDS011;36212;48.838;9.142;2023-09-07T15:23:39;3.00;;;2.80;;
2544;SDS011;36212;48.838;9.142;2023-09-07T15:26:13;3.20;;;3.00;;
2544;SDS011;36212;48.838;9.142;2023-09-07T15:28:45;2.90;;;2.70;;
2544;SDS011;36212;48.838;9.142;2023-09-07T15:31:18;3.23;;;2.93;;
2544;SDS011;36212;48.838;9.142;2023-09-07T15:33:50;2.63;;;2.43;;
2544;SDS011;36212;48.838;9.142;2023-09-07T15:36:23;2.80;;;2.60;;
2544;SDS011;36212;48.838;9.142;2023-09-07T15:38:55;2.60;;;2.50;;
2544;SDS011;36212;48.838;9.142;2023-09-07T15:41:28;3.00;;;2.80;;
2544;SDS011;36212;48.838;9.142;2023-09-07T15:44:00;2.63;;;2.47;;